Time;durP1;ratioP1;P1;durP2;ratioP2;P2;SDS_P1;SDS_P2;PMS_P1;PMS_P2;Temp;Humidity;BMP_temperature;BMP_pressure;BME280_temperature;BME280_humidity;BME280_pressure;Samples;Min_cycle;Max_cycle;Signal;HPM_P1;HPM_P2
2024/02/20 00:00:53;;;;;;;39.47;4.72;;;6.80;99.90;;;;;;4937759;29;20573;-85
2024/02/20 00:03:20;;;;;;;31.60;4.13;;;6.80;99.90;;;;;;4938667;29;20118;-85
2024/02/20 00:05:47;;;;;;;37.22;4.47;;;6.70;99.90;;;;;;4938469;29;20126;-85
2024/02/20 00:08:13;;;;;;;39.85;5.45;;;6.60;99.90;;;;;;4938075;29;20043;-84
2024/02/20 00:10:40;;;;;;;36.17;5.00;;;7.40;99.90;;;;;;4953955;29;20625;-85
2024/02/20 00:13:07;;;;;;;40.75;5.75;;;6.60;99.90;;;;;;4938016;29;20046;-85
2024/02/20 00:15:34;;;;;;;39.30;5.45;;;6.60;99.90;;;;;;4941492;29;20465;-85
2024/02/20 00:18:01;;;;;;;42.70;5.60;;;6.50;99.90;;;;;;4945822;29;20043;-85
2024/02/20 00:20:27;;;;;;;42.58;4.80;;;6.50;99.90;;;;;;4947207;29;20067;-85
2024/02/20 00:22:54;;;;;;;38.45;5.03;;;6.70;99.90;;;;;;4947429;29;20094;-85
2024/02/20 00:25:21;;;;;;;38.05;5.57;;;6.50;99.90;;;;;;4936429;29;20031;-85
2024/02/20 00:27:47;;;;;;;37.85;5.13;;;7.10;99.90;;;;;;4937754;29;20028;-85
2024/02/20 00:30:14;;;;;;;38.25;4.95;;;6.90;99.90;;;;;;4934294;29;20059;-85
2024/02/20 00:32:42;;;;;;;40.55;4.85;;;6.40;99.90;;;;;;4950460;29;20063;-85
2024/02/20 00:35:08;;;;;;;39.47;5.65;;;7.30;99.90;;;;;;4953472;29;20612;-85
2024/02/20 00:37:35;;;;;;;38.33;5.88;;;7.10;99.90;;;;;;4953813;29;20039;-85
2024/02/20 00:40:03;;;;;;;45.47;4.13;;;6.40;99.90;;;;;;4937661;29;20568;-85
2024/02/20 00:42:30;;;;;;;38.40;4.75;;;6.40;99.90;;;;;;4937792;29;20046;-85
2024/02/20 00:45:01;;;;;;;34.60;4.90;;;6.30;99.90;;;;;;4934114;29;20119;-85
2024/02/20 00:47:27;;;;;;;43.60;6.13;;;6.90;99.90;;;;;;4935781;29;20078;-85
2024/02/20 00:49:54;;;;;;;40.70;5.43;;;6.40;99.90;;;;;;4937382;29;20071;-85
2024/02/20 00:52:21;;;;;;;42.50;5.07;;;6.20;99.90;;;;;;4937603;29;20111;-85
2024/02/20 00:54:47;;;;;;;49.15;5.55;;;6.20;99.90;;;;;;4952735;29;20043;-85
2024/02/20 00:57:14;;;;;;;34.35;4.00;;;6.20;99.90;;;;;;4928493;29;20040;-85
2024/02/20 00:59:41;;;;;;;37.08;5.13;;;6.10;99.90;;;;;;4923474;29;20028;-85
2024/02/20 01:02:10;;;;;;;34.42;6.07;;;6.10;99.90;;;;;;4923354;29;20039;-85
2024/02/20 01:04:41;;;;;;;44.05;5.72;;;6.10;99.90;;;;;;4929822;29;20046;-85
2024/02/20 01:07:08;;;;;;;32.63;5.03;;;6.10;99.90;;;;;;4936824;29;20763;-85
2024/02/20 01:09:35;;;;;;;38.08;5.05;;;6.10;99.90;;;;;;4937485;29;20039;-85
2024/02/20 01:12:02;;;;;;;36.42;4.10;;;6.00;99.90;;;;;;4932963;29;20044;-85
2024/02/20 01:14:30;;;;;;;44.20;5.20;;;6.00;99.90;;;;;;4928145;29;20793;-85
2024/02/20 01:16:56;;;;;;;38.15;5.55;;;6.40;99.90;;;;;;4924055;29;20047;-85
2024/02/20 01:19:23;;;;;;;40.13;5.28;;;6.00;99.90;;;;;;4949648;29;20040;-85
2024/02/20 01:21:50;;;;;;;43.00;5.63;;;6.00;99.90;;;;;;4950834;29;20044;-85
2024/02/20 01:24:16;;;;;;;42.70;4.93;;;6.00;99.90;;;;;;4937284;29;20032;-85
2024/02/20 01:26:43;;;;;;;40.83;5.40;;;5.90;99.90;;;;;;4936597;29;20039;-85
2024/02/20 01:29:10;;;;;;;27.92;3.88;;;5.90;99.90;;;;;;4936808;29;20126;-85
2024/02/20 01:31:38;;;;;;;36.15;4.85;;;6.00;99.90;;;;;;4940658;29;20604;-85
2024/02/20 01:34:04;;;;;;;36.05;5.28;;;5.80;99.90;;;;;;4925592;29;20048;-85
2024/02/20 01:36:31;;;;;;;31.27;4.13;;;5.80;99.90;;;;;;4952653;29;20055;-84
2024/02/20 01:38:58;;;;;;;29.48;4.75;;;5.80;99.90;;;;;;4936591;29;20051;-85
2024/02/20 01:41:25;;;;;;;28.55;4.82;;;5.80;99.90;;;;;;4936152;29;20084;-85
2024/02/20 01:43:52;;;;;;;38.85;5.15;;;5.80;99.90;;;;;;4936819;29;20122;-85
2024/02/20 01:46:22;;;;;;;41.10;4.80;;;5.90;99.90;;;;;;4934326;29;20131;-85
2024/02/20 01:48:52;;;;;;;37.22;4.95;;;5.80;99.90;;;;;;4948327;29;20651;-85
2024/02/20 01:51:23;;;;;;;38.88;5.85;;;5.80;99.90;;;;;;4932463;29;20418;-85
2024/02/20 01:53:50;;;;;;;39.22;5.07;;;5.70;99.90;;;;;;4917873;29;20492;-85
2024/02/20 01:56:18;;;;;;;37.55;5.10;;;5.80;99.90;;;;;;4934770;29;20527;-85
2024/02/20 01:58:45;;;;;;;32.75;4.35;;;6.40;99.90;;;;;;4936801;29;20094;-85
2024/02/20 02:01:12;;;;;;;34.25;4.82;;;5.80;99.90;;;;;;4936510;29;20051;-85
2024/02/20 02:03:39;;;;;;;35.85;5.15;;;6.60;99.90;;;;;;4945576;29;20032;-85
2024/02/20 02:06:05;;;;;;;45.17;4.82;;;5.80;99.90;;;;;;4948842;29;20035;-85
2024/02/20 02:08:32;;;;;;;46.22;5.35;;;5.80;99.90;;;;;;4936892;29;20068;-85
2024/02/20 02:10:59;;;;;;;36.38;4.20;;;5.80;99.90;;;;;;4953344;29;20050;-85
2024/02/20 02:13:25;;;;;;;47.28;5.15;;;5.80;99.90;;;;;;4937609;29;20039;-85
2024/02/20 02:15:52;;;;;;;35.80;4.53;;;5.80;99.90;;;;;;4936050;29;20052;-85
2024/02/20 02:18:19;;;;;;;34.30;4.65;;;5.90;99.90;;;;;;4934226;29;20054;-85
2024/02/20 02:20:45;;;;;;;32.17;4.43;;;6.70;99.90;;;;;;4936078;29;20032;-85
2024/02/20 02:23:12;;;;;;;33.65;5.38;;;5.80;99.90;;;;;;4936053;29;20040;-85
2024/02/20 02:25:39;;;;;;;38.55;4.50;;;6.00;99.90;;;;;;4968435;29;20044;-85
2024/02/20 02:28:06;;;;;;;31.35;4.55;;;5.90;99.90;;;;;;4938798;29;20039;-85
2024/02/20 02:30:33;;;;;;;39.30;4.18;;;5.90;99.90;;;;;;4936824;29;20048;-85
2024/02/20 02:33:00;;;;;;;38.30;4.38;;;6.00;99.90;;;;;;4937752;29;20063;-85
2024/02/20 02:35:27;;;;;;;45.67;5.22;;;5.80;99.90;;;;;;4935291;29;20098;-85
2024/02/20 02:37:53;;;;;;;36.35;4.78;;;5.90;99.90;;;;;;4940098;29;20130;-84
2024/02/20 02:40:20;;;;;;;45.20;4.32;;;5.80;99.90;;;;;;4940170;29;20048;-85
2024/02/20 02:42:46;;;;;;;35.45;5.00;;;5.80;99.90;;;;;;4935470;29;20043;-85
2024/02/20 02:45:13;;;;;;;34.17;4.57;;;6.20;99.90;;;;;;4955637;29;20042;-85
2024/02/20 02:47:40;;;;;;;25.52;4.50;;;6.00;99.90;;;;;;4927747;29;20047;-85
2024/02/20 02:50:06;;;;;;;38.67;4.90;;;6.30;99.90;;;;;;4933756;29;20457;-85
2024/02/20 02:52:34;;;;;;;33.35;4.18;;;5.80;99.90;;;;;;4953620;29;20139;-85
2024/02/20 02:55:00;;;;;;;30.23;4.35;;;6.80;99.90;;;;;;4939593;29;20102;-85
2024/02/20 02:57:27;;;;;;;36.88;4.25;;;5.80;99.90;;;;;;4939505;29;20035;-85
2024/02/20 02:59:53;;;;;;;41.17;4.38;;;5.80;99.90;;;;;;4939587;29;20039;-85
2024/02/20 03:02:21;;;;;;;36.55;4.57;;;6.60;99.90;;;;;;4955013;29;20489;-85
2024/02/20 03:04:48;;;;;;;37.28;4.38;;;5.90;99.90;;;;;;4952530;29;20115;-85
2024/02/20 03:07:14;;;;;;;33.05;5.25;;;6.50;99.90;;;;;;4951423;29;20127;-85
2024/02/20 03:09:41;;;;;;;29.45;4.20;;;5.90;99.90;;;;;;4936635;29;20050;-85
2024/02/20 03:12:08;;;;;;;34.15;4.03;;;6.20;99.90;;;;;;4939206;29;20070;-85
2024/02/20 03:14:34;;;;;;;40.40;4.78;;;5.80;99.90;;;;;;4931111;29;20114;-85
2024/02/20 03:17:01;;;;;;;40.40;4.97;;;5.80;99.90;;;;;;4939070;29;20040;-85
2024/02/20 03:19:28;;;;;;;37.30;5.18;;;5.80;99.90;;;;;;4939384;29;20118;-85
2024/02/20 03:21:54;;;;;;;27.98;4.18;;;5.80;99.90;;;;;;4935922;29;20458;-84
2024/02/20 03:24:21;;;;;;;35.00;4.00;;;5.80;99.90;;;;;;4936512;29;20035;-85
2024/02/20 03:26:48;;;;;;;30.27;3.90;;;5.90;99.90;;;;;;4938400;29;20116;-84
2024/02/20 03:29:15;;;;;;;41.25;4.47;;;6.40;99.90;;;;;;4939246;29;20043;-85
2024/02/20 03:31:42;;;;;;;29.90;3.78;;;6.00;99.90;;;;;;4938581;29;20043;-85
2024/02/20 03:34:09;;;;;;;32.80;4.20;;;5.90;99.90;;;;;;4938649;29;20043;-84
2024/02/20 03:36:36;;;;;;;34.00;4.10;;;5.90;99.90;;;;;;4946620;29;20043;-85
2024/02/20 03:39:02;;;;;;;31.80;3.85;;;6.30;99.90;;;;;;4943098;29;20535;-85
2024/02/20 03:41:29;;;;;;;35.78;3.95;;;5.70;99.90;;;;;;4938566;29;20043;-84
2024/02/20 03:43:55;;;;;;;34.05;4.18;;;5.70;99.90;;;;;;4938762;29;20043;-85
2024/02/20 03:46:22;;;;;;;23.90;3.45;;;5.70;99.90;;;;;;4939336;29;20044;-85
2024/02/20 03:48:49;;;;;;;39.38;4.25;;;6.20;99.90;;;;;;4939033;29;20059;-85
2024/02/20 03:51:18;;;;;;;32.22;3.70;;;5.60;99.90;;;;;;4955274;29;20035;-85
2024/02/20 03:53:44;;;;;;;33.35;4.55;;;5.60;99.90;;;;;;4954023;29;20424;-85
2024/02/20 03:56:12;;;;;;;23.35;3.17;;;6.10;99.90;;;;;;4938152;29;20040;-84
2024/02/20 03:58:39;;;;;;;25.42;3.95;;;5.60;99.90;;;;;;4938234;29;20103;-85
2024/02/20 04:01:06;;;;;;;34.50;4.00;;;6.30;99.90;;;;;;4937835;29;20558;-85
2024/02/20 04:03:33;;;;;;;27.52;3.50;;;5.60;99.90;;;;;;4938143;29;20134;-85
2024/02/20 04:06:00;;;;;;;30.00;4.35;;;5.50;99.90;;;;;;4943918;29;20076;-85
2024/02/20 04:08:27;;;;;;;34.17;4.50;;;5.50;99.90;;;;;;4935400;29;20524;-84
2024/02/20 04:10:53;;;;;;;29.60;3.67;;;5.50;99.90;;;;;;4936832;29;20118;-85
2024/02/20 04:13:20;;;;;;;28.67;3.80;;;5.50;99.90;;;;;;4920074;29;20040;-86
2024/02/20 04:15:49;;;;;;;37.33;3.88;;;6.50;99.90;;;;;;4936905;29;20513;-85
2024/02/20 04:18:16;;;;;;;30.50;3.92;;;5.50;99.90;;;;;;4953935;29;20071;-84
2024/02/20 04:20:43;;;;;;;32.00;3.50;;;6.60;99.90;;;;;;4938200;29;20075;-85
2024/02/20 04:23:09;;;;;;;33.83;3.65;;;5.40;99.90;;;;;;4931743;29;20036;-85
2024/02/20 04:25:36;;;;;;;26.45;3.92;;;6.10;99.90;;;;;;4950518;29;20104;-85
2024/02/20 04:28:03;;;;;;;36.58;3.65;;;5.50;99.90;;;;;;4950222;29;20043;-84
2024/02/20 04:30:29;;;;;;;28.67;4.63;;;5.50;99.90;;;;;;4935568;29;20106;-84
2024/02/20 04:32:56;;;;;;;24.27;3.63;;;6.30;99.90;;;;;;4934569;29;20052;-84
2024/02/20 04:35:23;;;;;;;28.80;4.28;;;5.80;99.90;;;;;;4929573;29;20523;-84
2024/02/20 04:37:49;;;;;;;27.50;3.55;;;6.40;99.90;;;;;;4934675;29;20402;-84
2024/02/20 04:40:20;;;;;;;25.95;2.92;;;5.40;99.90;;;;;;4930955;29;20083;-84
2024/02/20 04:42:47;;;;;;;30.15;3.25;;;5.40;99.90;;;;;;4962365;29;20126;-85
2024/02/20 04:45:14;;;;;;;37.85;3.65;;;5.40;99.90;;;;;;4937334;29;20118;-85
2024/02/20 04:47:40;;;;;;;26.20;3.67;;;6.30;99.90;;;;;;4937067;29;20036;-84
2024/02/20 04:50:07;;;;;;;29.10;4.05;;;5.30;99.90;;;;;;4949962;29;20052;-85
2024/02/20 04:52:34;;;;;;;33.17;4.20;;;5.30;99.90;;;;;;4933189;29;20519;-85
2024/02/20 04:55:02;;;;;;;31.77;3.85;;;5.60;99.90;;;;;;4949896;29;20047;-85
2024/02/20 04:57:29;;;;;;;33.85;3.80;;;5.30;99.90;;;;;;4935600;29;20417;-85
2024/02/20 04:59:56;;;;;;;35.05;4.07;;;5.90;99.90;;;;;;4943888;29;20047;-85
2024/02/20 05:02:22;;;;;;;31.35;3.63;;;5.30;99.90;;;;;;4935569;29;20059;-85
2024/02/20 05:04:49;;;;;;;34.28;3.28;;;5.30;99.90;;;;;;4949634;29;20556;-84
2024/02/20 05:07:16;;;;;;;22.92;3.50;;;5.20;99.90;;;;;;4950287;29;20036;-85
2024/02/20 05:09:42;;;;;;;35.58;3.75;;;5.20;99.90;;;;;;4937392;29;20095;-85
2024/02/20 05:12:09;;;;;;;32.45;3.50;;;5.20;99.90;;;;;;4937218;29;20036;-85
2024/02/20 05:14:35;;;;;;;36.88;3.83;;;5.20;99.90;;;;;;4953033;29;20039;-85
2024/02/20 05:17:02;;;;;;;35.08;4.70;;;5.20;99.90;;;;;;4937058;29;20127;-84
2024/02/20 05:19:29;;;;;;;29.90;3.65;;;5.20;99.90;;;;;;4952929;29;20039;-84
2024/02/20 05:21:56;;;;;;;27.92;3.42;;;5.40;99.90;;;;;;4936765;29;20516;-85
2024/02/20 05:24:22;;;;;;;33.13;4.47;;;6.20;99.90;;;;;;4936848;29;20039;-85
2024/02/20 05:26:49;;;;;;;34.25;4.40;;;6.10;99.90;;;;;;4919241;29;20103;-85
2024/02/20 05:29:15;;;;;;;27.20;2.80;;;5.30;99.90;;;;;;4945545;29;20040;-85
2024/02/20 05:31:42;;;;;;;27.70;3.47;;;5.50;99.90;;;;;;4936362;29;20039;-84
2024/02/20 05:34:09;;;;;;;27.85;3.38;;;5.30;99.90;;;;;;4936876;29;20068;-85
2024/02/20 05:36:35;;;;;;;36.17;5.00;;;5.70;99.90;;;;;;4929258;29;20040;-85
2024/02/20 05:39:02;;;;;;;35.00;3.33;;;5.80;99.90;;;;;;4919593;29;20071;-84
2024/02/20 05:41:30;;;;;;;33.20;3.55;;;5.30;99.90;;;;;;4936654;29;20039;-84
2024/02/20 05:43:58;;;;;;;40.13;3.33;;;5.90;99.90;;;;;;4936572;29;20067;-85
2024/02/20 05:46:32;;;;;;;31.38;4.30;;;5.30;99.90;;;;;;4936348;29;20098;-85
2024/02/20 05:48:59;;;;;;;34.60;4.10;;;5.40;99.90;;;;;;4936866;29;20043;-85
2024/02/20 05:51:27;;;;;;;33.67;3.85;;;5.30;99.90;;;;;;4942964;29;20095;-84
2024/02/20 05:53:54;;;;;;;26.52;3.35;;;5.30;99.90;;;;;;4930343;29;20701;-85
2024/02/20 05:56:20;;;;;;;35.85;3.50;;;5.30;99.90;;;;;;4939823;29;20043;-85
2024/02/20 05:58:47;;;;;;;29.25;3.88;;;5.30;99.90;;;;;;4923986;29;20044;-84
2024/02/20 06:01:15;;;;;;;29.75;3.88;;;6.20;99.90;;;;;;4936900;29;20050;-85
2024/02/20 06:03:43;;;;;;;39.58;3.67;;;5.40;99.90;;;;;;4924163;29;20163;-85
2024/02/20 06:06:11;;;;;;;26.10;3.70;;;5.40;99.90;;;;;;4925389;29;20438;-85
2024/02/20 06:08:44;;;;;;;36.78;4.05;;;5.30;99.90;;;;;;4936523;29;20122;-85
2024/02/20 06:11:15;;;;;;;35.63;3.63;;;6.20;99.90;;;;;;4936214;29;20392;-85
2024/02/20 06:13:43;;;;;;;36.20;4.95;;;5.40;99.90;;;;;;4936271;29;20481;-85
2024/02/20 06:16:09;;;;;;;40.67;4.05;;;6.20;99.90;;;;;;4936052;29;20501;-85
2024/02/20 06:18:37;;;;;;;34.13;3.63;;;5.30;99.90;;;;;;4937535;29;20048;-84
2024/02/20 06:21:04;;;;;;;24.20;3.80;;;5.30;99.90;;;;;;4940646;29;20071;-85
2024/02/20 06:23:31;;;;;;;29.45;3.40;;;5.30;99.90;;;;;;4948668;29;20103;-85
2024/02/20 06:25:57;;;;;;;36.28;5.03;;;5.30;99.90;;;;;;4945474;29;20043;-85
2024/02/20 06:28:24;;;;;;;45.80;4.72;;;5.90;99.90;;;;;;4923951;29;20099;-85
2024/02/20 06:30:51;;;;;;;39.67;4.72;;;6.10;99.90;;;;;;4935643;29;20043;-84
2024/02/20 06:33:18;;;;;;;32.08;4.55;;;6.30;99.90;;;;;;4932555;29;20054;-85
2024/02/20 06:35:44;;;;;;;40.20;4.57;;;6.40;99.90;;;;;;4939279;29;20084;-85
2024/02/20 06:38:11;;;;;;;39.03;4.25;;;5.40;99.90;;;;;;4936159;29;20130;-85
2024/02/20 06:40:37;;;;;;;31.08;3.67;;;5.40;99.90;;;;;;4935956;29;20054;-85
2024/02/20 06:43:04;;;;;;;36.50;4.25;;;6.00;99.90;;;;;;4950704;29;20028;-85
2024/02/20 06:45:31;;;;;;;20.58;3.85;;;5.40;99.90;;;;;;4949844;29;20040;-84
2024/02/20 06:47:57;;;;;;;37.78;4.50;;;6.30;99.90;;;;;;4949190;29;20091;-85
2024/02/20 06:50:24;;;;;;;25.67;4.00;;;5.50;99.90;;;;;;4946392;29;20083;-85
2024/02/20 06:52:51;;;;;;;28.35;4.03;;;5.50;99.90;;;;;;4930115;29;20153;-85
2024/02/20 06:55:18;;;;;;;30.23;4.10;;;5.50;99.90;;;;;;4935941;29;20183;-85
2024/02/20 06:57:45;;;;;;;23.13;4.00;;;6.50;99.90;;;;;;4935461;29;20070;-85
2024/02/20 07:00:14;;;;;;;31.98;3.78;;;5.50;99.90;;;;;;4931791;29;20130;-85
2024/02/20 07:02:42;;;;;;;35.58;4.07;;;5.60;99.90;;;;;;4951708;29;20035;-85
2024/02/20 07:05:08;;;;;;;28.98;3.95;;;5.60;99.90;;;;;;4935219;29;20118;-86
2024/02/20 07:07:35;;;;;;;33.85;4.30;;;6.40;99.90;;;;;;4936032;29;20123;-86
2024/02/20 07:10:03;;;;;;;30.92;3.90;;;5.70;99.90;;;;;;4934986;29;20072;-86
2024/02/20 07:12:30;;;;;;;37.03;4.72;;;5.60;99.90;;;;;;4938720;29;20048;-86
2024/02/20 07:14:56;;;;;;;37.80;4.38;;;6.20;99.90;;;;;;4940373;29;20036;-85
2024/02/20 07:17:24;;;;;;;32.38;3.92;;;5.70;99.90;;;;;;4939898;29;20044;-86
2024/02/20 07:19:50;;;;;;;43.10;3.80;;;5.80;99.90;;;;;;4938683;29;20040;-86
2024/02/20 07:22:17;;;;;;;30.67;4.05;;;5.80;99.90;;;;;;4939692;29;20847;-87
2024/02/20 07:24:44;;;;;;;27.90;4.45;;;5.80;99.90;;;;;;4939940;29;20055;-86
2024/02/20 07:27:10;;;;;;;31.42;3.75;;;5.90;99.90;;;;;;4939261;29;20044;-86
2024/02/20 07:29:41;;;;;;;37.42;4.97;;;5.80;99.90;;;;;;4939848;29;20035;-86
2024/02/20 07:32:09;;;;;;;54.33;4.97;;;5.90;99.90;;;;;;4937641;29;20051;-86
2024/02/20 07:34:38;;;;;;;35.20;4.22;;;6.40;99.90;;;;;;4927798;29;20040;-86
2024/02/20 07:37:05;;;;;;;24.52;3.45;;;6.00;99.90;;;;;;4940032;29;20047;-86
2024/02/20 07:39:32;;;;;;;22.00;3.83;;;7.20;99.90;;;;;;4954841;29;20106;-87
2024/02/20 07:41:59;;;;;;;33.20;3.83;;;7.20;99.90;;;;;;4938495;29;20531;-86
2024/02/20 07:44:26;;;;;;;25.08;3.85;;;6.10;99.90;;;;;;4939399;29;20040;-84
2024/02/20 07:46:53;;;;;;;26.48;4.38;;;6.10;99.90;;;;;;4907619;29;20504;-84
2024/02/20 07:49:20;;;;;;;28.95;4.18;;;6.10;99.90;;;;;;4938702;29;20060;-84
2024/02/20 07:51:47;;;;;;;28.63;3.85;;;6.20;99.90;;;;;;4941630;29;20069;-85
2024/02/20 07:54:15;;;;;;;33.22;3.80;;;6.20;99.90;;;;;;4946907;29;20485;-84
2024/02/20 07:56:42;;;;;;;27.15;4.32;;;6.30;99.90;;;;;;4951287;29;20044;-84
2024/02/20 07:59:10;;;;;;;32.55;3.78;;;6.30;99.90;;;;;;4938444;29;20055;-85
2024/02/20 08:01:37;;;;;;;26.05;3.58;;;7.30;99.90;;;;;;4938232;29;20040;-85
2024/02/20 08:04:03;;;;;;;39.92;4.05;;;6.50;99.90;;;;;;4937979;29;20048;-84
2024/02/20 08:06:30;;;;;;;34.33;4.28;;;6.40;99.90;;;;;;4932703;29;20052;-84
2024/02/20 08:08:57;;;;;;;32.83;4.45;;;6.50;99.90;;;;;;4931653;29;20634;-85
2024/02/20 08:11:23;;;;;;;33.38;3.75;;;6.60;99.90;;;;;;4940540;29;20043;-85
2024/02/20 08:13:50;;;;;;;34.33;4.05;;;6.60;99.90;;;;;;4942381;29;20044;-85
2024/02/20 08:16:17;;;;;;;36.42;4.07;;;6.60;99.90;;;;;;4938327;29;20046;-85
2024/02/20 08:18:44;;;;;;;28.95;4.18;;;6.60;99.90;;;;;;4959677;29;20826;-84
2024/02/20 08:21:11;;;;;;;32.15;3.60;;;6.70;99.90;;;;;;4938140;29;20039;-85
2024/02/20 08:23:43;;;;;;;34.28;3.83;;;6.00;99.90;;;;;;4953936;29;20036;-85
2024/02/20 08:26:10;;;;;;;37.55;5.03;;;6.70;99.90;;;;;;4937589;29;20118;-85
2024/02/20 08:28:38;;;;;;;28.55;4.25;;;6.80;99.90;;;;;;4937506;29;20054;-84
2024/02/20 08:31:04;;;;;;;24.38;3.80;;;6.80;99.90;;;;;;4941037;29;20047;-84
2024/02/20 08:33:31;;;;;;;34.58;4.30;;;6.80;99.90;;;;;;4953486;29;20055;-85
2024/02/20 08:35:58;;;;;;;27.13;4.05;;;6.90;99.90;;;;;;4953460;29;20094;-84
2024/02/20 08:38:24;;;;;;;31.45;4.18;;;6.90;99.90;;;;;;4935023;29;20048;-84
2024/02/20 08:40:51;;;;;;;21.67;3.92;;;6.90;99.90;;;;;;4949836;29;20039;-85
2024/02/20 08:43:18;;;;;;;34.40;4.70;;;7.10;99.90;;;;;;4937990;29;20043;-84
2024/02/20 08:45:45;;;;;;;31.50;4.28;;;7.10;99.90;;;;;;4952574;29;20425;-85
2024/02/20 08:48:11;;;;;;;32.50;4.60;;;7.30;99.90;;;;;;4936193;29;20039;-85
2024/02/20 08:50:38;;;;;;;36.03;5.03;;;7.10;99.90;;;;;;4937303;29;20422;-85
2024/02/20 08:53:10;;;;;;;33.13;4.18;;;7.10;99.90;;;;;;4937330;29;20039;-85
2024/02/20 08:55:38;;;;;;;29.58;4.43;;;7.10;99.90;;;;;;4952745;29;20036;-84
2024/02/20 08:58:05;;;;;;;29.88;4.13;;;7.20;99.90;;;;;;4936396;29;20078;-85
2024/02/20 09:00:32;;;;;;;35.17;4.63;;;8.00;99.90;;;;;;4936422;29;20087;-86
2024/02/20 09:02:59;;;;;;;27.88;4.47;;;7.30;99.90;;;;;;4937078;29;20486;-85
2024/02/20 09:05:26;;;;;;;35.70;4.30;;;7.30;99.90;;;;;;4936647;29;20043;-84
2024/02/20 09:07:52;;;;;;;29.30;4.40;;;7.60;99.90;;;;;;4936747;29;20043;-85
2024/02/20 09:10:19;;;;;;;37.05;4.65;;;7.50;99.90;;;;;;4938914;29;20512;-84
2024/02/20 09:12:46;;;;;;;28.40;4.13;;;7.50;99.90;;;;;;4936080;29;20134;-84
2024/02/20 09:15:12;;;;;;;30.73;4.82;;;7.80;99.90;;;;;;4948074;29;20040;-85
2024/02/20 09:17:39;;;;;;;31.67;4.70;;;7.60;99.90;;;;;;4929711;29;20050;-85
2024/02/20 09:20:07;;;;;;;29.83;5.72;;;7.60;99.90;;;;;;4931351;29;20039;-88
2024/02/20 09:22:36;;;;;;;22.70;4.60;;;7.60;99.90;;;;;;4950318;29;20118;-86
2024/02/20 09:25:02;;;;;;;34.13;5.65;;;7.70;99.90;;;;;;4951882;29;20047;-86
2024/02/20 09:27:29;;;;;;;32.65;6.25;;;7.70;99.90;;;;;;4944682;29;20047;-86
2024/02/20 09:29:56;;;;;;;35.78;6.00;;;7.80;99.90;;;;;;4941253;29;20067;-85
2024/02/20 09:32:22;;;;;;;33.80;6.53;;;7.80;99.90;;;;;;4936301;29;20065;-86
2024/02/20 09:34:50;;;;;;;29.50;5.85;;;7.80;99.90;;;;;;4932077;29;20043;-86
2024/02/20 09:37:17;;;;;;;33.72;5.88;;;7.80;99.90;;;;;;4937012;29;20044;-85
2024/02/20 09:39:44;;;;;;;36.65;6.75;;;8.20;99.90;;;;;;4945654;29;20454;-85
2024/02/20 09:42:21;;;;;;;35.63;6.78;;;8.30;99.90;;;;;;4918995;29;20099;-86
2024/02/20 09:44:51;;;;;;;30.05;5.93;;;8.10;99.90;;;;;;4929013;29;20118;-86
2024/02/20 09:47:19;;;;;;;37.10;7.50;;;8.10;99.90;;;;;;4930169;29;20071;-86
2024/02/20 09:49:49;;;;;;;29.55;6.50;;;8.20;99.90;;;;;;4936573;29;20046;-86
2024/02/20 09:52:18;;;;;;;37.28;7.82;;;8.70;99.90;;;;;;4936319;29;20043;-86
2024/02/20 09:54:45;;;;;;;32.20;7.47;;;8.40;99.90;;;;;;4928011;29;20044;-86
2024/02/20 09:57:14;;;;;;;25.65;6.13;;;8.30;99.90;;;;;;4936494;29;20394;-86
2024/02/20 09:59:43;;;;;;;33.85;6.75;;;8.30;99.90;;;;;;4934394;29;20039;-87
2024/02/20 10:02:21;;;;;;;36.05;6.68;;;8.30;99.90;;;;;;4951996;29;20054;-86
2024/02/20 10:04:47;;;;;;;43.53;7.10;;;8.40;99.90;;;;;;4934912;29;20032;-86
2024/02/20 10:07:18;;;;;;;29.50;6.97;;;8.40;99.90;;;;;;4936894;29;20098;-86
2024/02/20 10:09:45;;;;;;;34.05;6.10;;;8.60;99.90;;;;;;4952640;29;20044;-86
2024/02/20 10:12:23;;;;;;;37.25;7.07;;;8.30;99.90;;;;;;4937188;29;20044;-87
2024/02/20 10:14:50;;;;;;;32.05;7.22;;;8.40;99.90;;;;;;4936797;29;20464;-86
2024/02/20 10:17:17;;;;;;;34.95;7.18;;;8.70;99.90;;;;;;4950947;29;20123;-86
2024/02/20 10:19:44;;;;;;;30.80;6.80;;;8.50;99.90;;;;;;4929363;29;20051;-85
2024/02/20 10:22:11;;;;;;;27.08;7.43;;;8.40;99.90;;;;;;4942333;29;20048;-85
2024/02/20 10:24:38;;;;;;;29.20;6.85;;;9.20;99.90;;;;;;4948662;29;20036;-85
2024/02/20 10:27:05;;;;;;;33.45;7.35;;;8.50;99.90;;;;;;4939925;29;20044;-86
2024/02/20 10:29:32;;;;;;;26.10;6.10;;;8.60;99.90;;;;;;4934340;29;20074;-86
2024/02/20 10:31:58;;;;;;;27.33;6.82;;;9.10;99.90;;;;;;4932521;29;20788;-86
2024/02/20 10:34:25;;;;;;;38.05;6.72;;;8.50;99.90;;;;;;4930271;29;20056;-85
2024/02/20 10:37:03;;;;;;;32.58;6.85;;;9.60;99.90;;;;;;4932090;29;20043;-86
2024/02/20 10:39:30;;;;;;;29.10;6.22;;;8.70;99.90;;;;;;4930995;29;20048;-85
2024/02/20 10:42:01;;;;;;;44.40;7.93;;;8.60;99.90;;;;;;4948398;29;20051;-85
2024/02/20 10:44:29;;;;;;;38.70;7.22;;;8.70;99.90;;;;;;4951758;29;20118;-86
2024/02/20 10:47:04;;;;;;;28.00;6.20;;;8.70;99.90;;;;;;4939692;29;20229;-86
2024/02/20 10:49:33;;;;;;;27.63;6.28;;;8.80;99.90;;;;;;4933414;29;20099;-86
2024/02/20 10:52:04;;;;;;;36.17;7.30;;;8.80;99.90;;;;;;4935239;29;20099;-86
2024/02/20 10:54:32;;;;;;;32.08;6.55;;;8.80;99.90;;;;;;4937626;29;20084;-86
2024/02/20 10:56:59;;;;;;;29.00;6.97;;;8.90;99.90;;;;;;4956050;29;20051;-86
2024/02/20 10:59:27;;;;;;;29.88;7.28;;;9.80;99.90;;;;;;4939342;29;20040;-86
2024/02/20 11:01:54;;;;;;;25.23;6.72;;;8.90;99.90;;;;;;4936574;29;20044;-86
2024/02/20 11:04:20;;;;;;;36.92;7.65;;;8.80;99.90;;;;;;4935423;29;20046;-86
2024/02/20 11:06:48;;;;;;;30.02;7.15;;;9.10;99.90;;;;;;4939195;29;20122;-86
2024/02/20 11:09:15;;;;;;;24.08;6.95;;;9.20;99.90;;;;;;4935503;29;20079;-86
2024/02/20 11:11:42;;;;;;;31.10;7.30;;;9.70;99.90;;;;;;4939352;29;20176;-86
2024/02/20 11:14:09;;;;;;;29.23;7.63;;;9.00;99.90;;;;;;4939585;29;20075;-86
2024/02/20 11:16:38;;;;;;;35.88;7.15;;;9.80;99.90;;;;;;4937168;29;20492;-86
2024/02/20 11:19:04;;;;;;;32.90;8.20;;;9.00;99.90;;;;;;4954189;29;20555;-86
2024/02/20 11:21:33;;;;;;;31.65;8.02;;;9.10;99.90;;;;;;4939403;29;20032;-86
2024/02/20 11:24:14;;;;;;;26.08;7.75;;;9.40;99.90;;;;;;4939649;29;20039;-87
2024/02/20 11:26:44;;;;;;;36.80;16.58;;;9.10;99.90;;;;;;4952829;29;20040;-86
2024/02/20 11:29:11;;;;;;;33.13;9.95;;;9.30;99.90;;;;;;4939623;29;20115;-87
2024/02/20 11:31:37;;;;;;;27.75;9.70;;;9.30;99.90;;;;;;4954763;29;20142;-86
2024/02/20 11:34:16;;;;;;;28.77;9.80;;;9.30;99.90;;;;;;4936364;29;20497;-86
2024/02/20 11:36:46;;;;;;;31.33;8.77;;;9.40;99.90;;;;;;4942393;29;20040;-86
2024/02/20 11:39:16;;;;;;;32.50;8.23;;;9.50;99.90;;;;;;4939124;29;20047;-86
2024/02/20 11:41:47;;;;;;;27.90;7.28;;;9.50;99.90;;;;;;4949102;29;20078;-86
2024/02/20 11:44:15;;;;;;;29.23;8.65;;;9.50;99.90;;;;;;4940540;29;20032;-86
2024/02/20 11:46:52;;;;;;;32.78;9.30;;;9.60;99.90;;;;;;4954344;29;20730;-87
2024/02/20 11:49:24;;;;;;;32.67;7.43;;;9.50;99.90;;;;;;4951102;29;20044;-86
2024/02/20 11:52:01;;;;;;;25.25;6.90;;;9.50;99.90;;;;;;4936359;29;20044;-86
2024/02/20 11:54:28;;;;;;;27.60;8.40;;;9.50;99.90;;;;;;4933138;29;20039;-87
2024/02/20 11:56:55;;;;;;;30.13;6.63;;;9.60;99.90;;;;;;4936939;29;20040;-86
2024/02/20 11:59:21;;;;;;;30.60;7.32;;;10.20;99.90;;;;;;4940447;29;20071;-86
2024/02/20 12:01:48;;;;;;;32.03;7.53;;;9.70;99.90;;;;;;4938069;29;20114;-86
2024/02/20 12:04:25;;;;;;;30.83;7.05;;;10.10;99.90;;;;;;4933854;29;20063;-86
2024/02/20 12:06:52;;;;;;;32.33;7.22;;;9.80;99.90;;;;;;4934333;29;20043;-86
2024/02/20 12:09:18;;;;;;;28.67;6.50;;;10.60;99.90;;;;;;4950845;29;20051;-87
2024/02/20 12:11:54;;;;;;;24.65;6.03;;;10.20;99.90;;;;;;4935920;29;20044;-86
2024/02/20 12:14:22;;;;;;;27.67;6.57;;;9.80;99.90;;;;;;4938058;29;20050;-86
2024/02/20 12:16:57;;;;;;;19.77;5.55;;;9.90;99.90;;;;;;4936253;29;20087;-87
2024/02/20 12:19:23;;;;;;;22.58;5.85;;;9.90;99.90;;;;;;4955226;29;20048;-87
2024/02/20 12:21:50;;;;;;;25.40;6.30;;;9.90;99.90;;;;;;4935152;29;20054;-86
2024/02/20 12:24:22;;;;;;;25.60;5.80;;;10.20;99.90;;;;;;4953374;29;20414;-86
2024/02/20 12:26:51;;;;;;;30.92;6.63;;;9.90;99.90;;;;;;4933771;29;20050;-86
2024/02/20 12:29:17;;;;;;;28.50;5.78;;;9.90;99.90;;;;;;4937307;29;20511;-86
2024/02/20 12:31:50;;;;;;;29.80;6.70;;;9.90;99.90;;;;;;4938098;29;20067;-86
2024/02/20 12:34:17;;;;;;;29.77;6.45;;;9.80;99.90;;;;;;4937952;29;20054;-86
2024/02/20 12:36:48;;;;;;;26.58;5.93;;;9.70;99.90;;;;;;4938442;29;20039;-87
2024/02/20 12:39:15;;;;;;;32.67;6.30;;;9.70;99.90;;;;;;4936994;29;20405;-86
2024/02/20 12:41:42;;;;;;;33.90;6.65;;;9.70;99.90;;;;;;4935381;29;20044;-86
2024/02/20 12:44:08;;;;;;;32.38;6.55;;;10.20;99.90;;;;;;4931089;29;20046;-86
2024/02/20 12:46:35;;;;;;;26.67;5.97;;;9.70;99.90;;;;;;4937048;29;20047;-87